Aérodrome :
LOGIN :

S'inscrire | Disclaimer

   EN    FR    IT 

 










Légende :    VFR   VFR Marginal   IFR   IFR Intensif   IFR Très Intensif
Visi : 
Plafond : 
>= 8 km
>= 3000ft
5 à 8 km
1000 à 3000 ft
1500m à 5 km
500 à 1000 ft
800 à 1500m
200 à 500 ft
< 800m
< 200 ft
Symboles :   Orages  Brouillard  Fortes neiges  Fortes précipitations  Vent > 20 kt
SIGMETs :   Divers  Orages  Givrage  Turbulence  Onde Orograph.  Cendres Volcan.






- Altitude de l'aérodrome : 25 ft
- Code IATA : QCY


EGXC - RAF Coningsby

DERNIER METAR :
  • 150050Z 20012KT 9999 -SHRA SCT025 OVC030 06/05 Q0983 RMK BLU

METARs EXPIRÉS :
  • 142350Z 19013KT 9999 SCT022 OVC060 05/04 Q0983 RMK BLU
  • 142250Z 19011KT CAVOK 05/03 Q0984 RMK BLU

TAF TAF EGXC
Valide du 15 à 00h jusqu'au 15 à 18h UTC


142230Z 1500/1518 20012KT 9999 BKN030
TEMPO 1500/1508 BKN016
PROB30
TEMPO 1500/1504 4000 SHRA BKN010
TEMPO 1502/1509 24015G28KT
PROB30
TEMPO 1515/1518 SCT020



MET'MAP, la Météo Aéronautique d'un coup d'oeil ! - Copyright ORBIFLY Décembre 2007 - Disclaimer

ORBIFLY MET'MAP TEAM :

Programmation & Développement : Alexandra Zaïnal
Sur une idée originale de : Baudouin d'Aumeries
Assistance à la programmation : Marc-Olivier Méhu
Soutien technique & logistique : Manuel Goepfert

Contact : metmap@orbifly.com




SOURCES & CREDITS :

   NOAA